sensor_id;sensor_type;location;lat;lon;timestamp;temperature;humidity
30572;DHT22;17348;50.948;10.696;2023-07-31T00:01:50;17.80;99.90
30572;DHT22;17348;50.948;10.696;2023-07-31T00:04:52;17.80;99.90
30572;DHT22;17348;50.948;10.696;2023-07-31T00:07:54;17.70;99.90
30572;DHT22;17348;50.948;10.696;2023-07-31T00:10:56;17.60;99.90
30572;DHT22;17348;50.948;10.696;2023-07-31T00:13:59;17.60;99.90
30572;DHT22;17348;50.948;10.696;2023-07-31T00:17:03;17.60;99.90
30572;DHT22;17348;50.948;10.696;2023-07-31T00:20:06;17.60;99.90
30572;DHT22;17348;50.948;10.696;2023-07-31T00:23:11;17.50;99.90
30572;DHT22;17348;50.948;10.696;2023-07-31T00:26:13;17.40;99.90
30572;DHT22;17348;50.948;10.696;2023-07-31T00:29:20;17.40;99.90
30572;DHT22;17348;50.948;10.696;2023-07-31T00:32:24;17.30;99.90
30572;DHT22;17348;50.948;10.696;2023-07-31T00:35:26;17.30;99.90
30572;DHT22;17348;50.948;10.696;2023-07-31T00:38:28;17.30;99.90
30572;DHT22;17348;50.948;10.696;2023-07-31T00:41:33;17.30;99.90
30572;DHT22;17348;50.948;10.696;2023-07-31T00:44:35;17.20;99.90
30572;DHT22;17348;50.948;10.696;2023-07-31T00:47:39;17.20;99.90
30572;DHT22;17348;50.948;10.696;2023-07-31T00:50:41;17.20;99.90
30572;DHT22;17348;50.948;10.696;2023-07-31T00:53:44;17.20;99.90
30572;DHT22;17348;50.948;10.696;2023-07-31T00:56:47;17.20;99.90
30572;DHT22;17348;50.948;10.696;2023-07-31T00:59:50;17.30;99.90
30572;DHT22;17348;50.948;10.696;2023-07-31T01:02:54;17.30;99.90
30572;DHT22;17348;50.948;10.696;2023-07-31T01:06:06;17.30;99.90
30572;DHT22;17348;50.948;10.696;2023-07-31T01:09:27;17.30;99.90
30572;DHT22;17348;50.948;10.696;2023-07-31T01:12:31;17.30;99.90
30572;DHT22;17348;50.948;10.696;2023-07-31T01:15:34;17.30;99.90
30572;DHT22;17348;50.948;10.696;2023-07-31T01:18:38;17.30;99.90
30572;DHT22;17348;50.948;10.696;2023-07-31T01:22:03;17.30;99.90
30572;DHT22;17348;50.948;10.696;2023-07-31T01:25:25;17.30;99.90
30572;DHT22;17348;50.948;10.696;2023-07-31T01:28:42;17.30;99.90
30572;DHT22;17348;50.948;10.696;2023-07-31T01:31:48;17.30;99.90
30572;DHT22;17348;50.948;10.696;2023-07-31T01:34:52;17.30;99.90
30572;DHT22;17348;50.948;10.696;2023-07-31T01:37:55;17.30;99.90
30572;DHT22;17348;50.948;10.696;2023-07-31T01:40:58;17.20;99.90
30572;DHT22;17348;50.948;10.696;2023-07-31T01:44:06;17.20;99.90
30572;DHT22;17348;50.948;10.696;2023-07-31T01:47:08;17.10;99.90
30572;DHT22;17348;50.948;10.696;2023-07-31T01:50:13;17.00;99.90
30572;DHT22;17348;50.948;10.696;2023-07-31T01:53:18;17.00;99.90
30572;DHT22;17348;50.948;10.696;2023-07-31T01:56:23;16.90;99.90
30572;DHT22;17348;50.948;10.696;2023-07-31T01:59:27;16.80;99.90
30572;DHT22;17348;50.948;10.696;2023-07-31T02:02:30;16.80;99.90
30572;DHT22;17348;50.948;10.696;2023-07-31T02:05:36;16.60;99.90
30572;DHT22;17348;50.948;10.696;2023-07-31T02:08:38;16.60;99.90
30572;DHT22;17348;50.948;10.696;2023-07-31T02:11:43;16.50;99.90
30572;DHT22;17348;50.948;10.696;2023-07-31T02:14:54;16.40;99.90
30572;DHT22;17348;50.948;10.696;2023-07-31T02:18:00;16.30;99.90
30572;DHT22;17348;50.948;10.696;2023-07-31T02:21:02;16.30;99.90
30572;DHT22;17348;50.948;10.696;2023-07-31T02:24:04;16.30;99.90
30572;DHT22;17348;50.948;10.696;2023-07-31T02:27:07;16.20;99.90
30572;DHT22;17348;50.948;10.696;2023-07-31T02:30:11;16.20;99.90
30572;DHT22;17348;50.948;10.696;2023-07-31T02:33:15;16.20;99.90
30572;DHT22;17348;50.948;10.696;2023-07-31T02:36:17;16.10;99.90
30572;DHT22;17348;50.948;10.696;2023-07-31T02:39:20;16.10;99.90
30572;DHT22;17348;50.948;10.696;2023-07-31T02:42:22;16.00;99.90
30572;DHT22;17348;50.948;10.696;2023-07-31T02:45:26;16.00;99.90
30572;DHT22;17348;50.948;10.696;2023-07-31T02:48:30;16.00;99.90
30572;DHT22;17348;50.948;10.696;2023-07-31T02:51:33;15.90;99.90
30572;DHT22;17348;50.948;10.696;2023-07-31T02:54:35;15.90;99.90
30572;DHT22;17348;50.948;10.696;2023-07-31T02:57:38;15.90;99.90
30572;DHT22;17348;50.948;10.696;2023-07-31T03:00:43;15.90;99.90
30572;DHT22;17348;50.948;10.696;2023-07-31T03:03:47;15.90;99.90
30572;DHT22;17348;50.948;10.696;2023-07-31T03:06:58;15.90;99.90
30572;DHT22;17348;50.948;10.696;2023-07-31T03:10:00;15.90;99.90
30572;DHT22;17348;50.948;10.696;2023-07-31T03:13:03;15.90;99.90
30572;DHT22;17348;50.948;10.696;2023-07-31T03:16:06;15.80;99.90
30572;DHT22;17348;50.948;10.696;2023-07-31T03:19:09;15.80;99.90
30572;DHT22;17348;50.948;10.696;2023-07-31T03:22:11;15.80;99.90
30572;DHT22;17348;50.948;10.696;2023-07-31T03:25:14;15.80;99.90
30572;DHT22;17348;50.948;10.696;2023-07-31T03:28:16;15.70;99.90
30572;DHT22;17348;50.948;10.696;2023-07-31T03:31:23;15.80;99.90
30572;DHT22;17348;50.948;10.696;2023-07-31T03:34:25;15.70;99.90
30572;DHT22;17348;50.948;10.696;2023-07-31T03:37:27;15.70;99.90
30572;DHT22;17348;50.948;10.696;2023-07-31T03:40:30;15.80;99.90
30572;DHT22;17348;50.948;10.696;2023-07-31T03:43:32;15.70;99.90
30572;DHT22;17348;50.948;10.696;2023-07-31T03:46:36;15.80;99.90
30572;DHT22;17348;50.948;10.696;2023-07-31T03:49:42;15.80;99.90
30572;DHT22;17348;50.948;10.696;2023-07-31T03:52:44;15.80;99.90
30572;DHT22;17348;50.948;10.696;2023-07-31T03:55:52;15.80;99.90
30572;DHT22;17348;50.948;10.696;2023-07-31T03:58:57;15.80;99.90
30572;DHT22;17348;50.948;10.696;2023-07-31T04:02:01;15.80;99.90
30572;DHT22;17348;50.948;10.696;2023-07-31T04:05:04;15.80;99.90
30572;DHT22;17348;50.948;10.696;2023-07-31T04:08:08;15.80;99.90
30572;DHT22;17348;50.948;10.696;2023-07-31T04:11:10;15.80;99.90
30572;DHT22;17348;50.948;10.696;2023-07-31T04:14:12;15.80;99.90
30572;DHT22;17348;50.948;10.696;2023-07-31T04:17:17;15.80;99.90
30572;DHT22;17348;50.948;10.696;2023-07-31T04:20:19;15.90;99.90
30572;DHT22;17348;50.948;10.696;2023-07-31T04:23:22;15.90;99.90
30572;DHT22;17348;50.948;10.696;2023-07-31T04:26:24;15.90;99.90
30572;DHT22;17348;50.948;10.696;2023-07-31T04:29:26;16.00;99.90
30572;DHT22;17348;50.948;10.696;2023-07-31T04:32:32;16.10;99.90
30572;DHT22;17348;50.948;10.696;2023-07-31T04:35:36;16.10;99.90
30572;DHT22;17348;50.948;10.696;2023-07-31T04:38:38;16.20;99.90
30572;DHT22;17348;50.948;10.696;2023-07-31T04:41:42;16.20;99.90
30572;DHT22;17348;50.948;10.696;2023-07-31T04:44:44;16.20;99.90
30572;DHT22;17348;50.948;10.696;2023-07-31T04:47:48;16.20;99.90
30572;DHT22;17348;50.948;10.696;2023-07-31T04:50:50;16.30;99.90
30572;DHT22;17348;50.948;10.696;2023-07-31T04:53:52;16.40;99.90
30572;DHT22;17348;50.948;10.696;2023-07-31T04:56:55;16.40;99.90
30572;DHT22;17348;50.948;10.696;2023-07-31T04:59:57;16.40;99.90
30572;DHT22;17348;50.948;10.696;2023-07-31T05:03:01;16.40;99.90
30572;DHT22;17348;50.948;10.696;2023-07-31T05:06:06;16.40;99.90
30572;DHT22;17348;50.948;10.696;2023-07-31T05:09:08;16.50;99.90
30572;DHT22;17348;50.948;10.696;2023-07-31T05:12:11;16.50;99.90
30572;DHT22;17348;50.948;10.696;2023-07-31T05:15:13;16.50;99.90
30572;DHT22;17348;50.948;10.696;2023-07-31T05:18:17;16.60;99.90
30572;DHT22;17348;50.948;10.696;2023-07-31T05:21:21;16.60;99.90
30572;DHT22;17348;50.948;10.696;2023-07-31T05:24:26;16.70;99.90
30572;DHT22;17348;50.948;10.696;2023-07-31T05:27:28;16.70;99.90
30572;DHT22;17348;50.948;10.696;2023-07-31T05:30:30;16.80;99.90
30572;DHT22;17348;50.948;10.696;2023-07-31T05:33:34;16.80;99.90
30572;DHT22;17348;50.948;10.696;2023-07-31T05:36:36;16.80;99.90
30572;DHT22;17348;50.948;10.696;2023-07-31T05:39:39;16.80;99.90
30572;DHT22;17348;50.948;10.696;2023-07-31T05:42:41;16.90;99.90
30572;DHT22;17348;50.948;10.696;2023-07-31T05:45:43;16.90;99.90
30572;DHT22;17348;50.948;10.696;2023-07-31T05:48:47;16.90;99.90
30572;DHT22;17348;50.948;10.696;2023-07-31T05:51:49;16.90;99.90
30572;DHT22;17348;50.948;10.696;2023-07-31T05:54:51;16.90;99.90
30572;DHT22;17348;50.948;10.696;2023-07-31T05:57:54;17.00;99.90
30572;DHT22;17348;50.948;10.696;2023-07-31T06:00:56;17.00;99.90
30572;DHT22;17348;50.948;10.696;2023-07-31T06:04:00;17.00;99.90
30572;DHT22;17348;50.948;10.696;2023-07-31T06:07:03;17.10;99.90
30572;DHT22;17348;50.948;10.696;2023-07-31T06:10:06;17.10;99.90
30572;DHT22;17348;50.948;10.696;2023-07-31T06:13:09;17.20;99.90
30572;DHT22;17348;50.948;10.696;2023-07-31T06:16:11;17.10;99.90
30572;DHT22;17348;50.948;10.696;2023-07-31T06:19:15;17.20;99.90
30572;DHT22;17348;50.948;10.696;2023-07-31T06:22:17;17.20;99.90
30572;DHT22;17348;50.948;10.696;2023-07-31T06:25:20;17.30;99.90
30572;DHT22;17348;50.948;10.696;2023-07-31T06:28:27;17.40;99.90
30572;DHT22;17348;50.948;10.696;2023-07-31T06:31:30;17.50;99.90
30572;DHT22;17348;50.948;10.696;2023-07-31T06:34:33;17.60;99.90
30572;DHT22;17348;50.948;10.696;2023-07-31T06:37:36;17.60;99.90
30572;DHT22;17348;50.948;10.696;2023-07-31T06:40:41;17.60;99.90
30572;DHT22;17348;50.948;10.696;2023-07-31T06:43:43;17.70;99.90
30572;DHT22;17348;50.948;10.696;2023-07-31T06:46:45;17.70;99.90
30572;DHT22;17348;50.948;10.696;2023-07-31T06:49:49;17.70;99.90
30572;DHT22;17348;50.948;10.696;2023-07-31T06:52:54;17.70;99.90
30572;DHT22;17348;50.948;10.696;2023-07-31T06:55:56;17.70;99.90
30572;DHT22;17348;50.948;10.696;2023-07-31T06:58:58;17.80;99.90
30572;DHT22;17348;50.948;10.696;2023-07-31T07:02:01;17.80;99.90
30572;DHT22;17348;50.948;10.696;2023-07-31T07:05:05;17.90;99.90
30572;DHT22;17348;50.948;10.696;2023-07-31T07:08:08;17.90;99.90
30572;DHT22;17348;50.948;10.696;2023-07-31T07:11:10;18.00;99.90
30572;DHT22;17348;50.948;10.696;2023-07-31T07:14:12;18.00;99.90
30572;DHT22;17348;50.948;10.696;2023-07-31T07:17:15;18.00;99.90
30572;DHT22;17348;50.948;10.696;2023-07-31T07:20:18;18.00;99.90
30572;DHT22;17348;50.948;10.696;2023-07-31T07:23:21;18.10;99.90
30572;DHT22;17348;50.948;10.696;2023-07-31T07:26:23;18.20;99.90
30572;DHT22;17348;50.948;10.696;2023-07-31T07:29:26;18.30;99.90
30572;DHT22;17348;50.948;10.696;2023-07-31T07:32:28;18.40;99.90
30572;DHT22;17348;50.948;10.696;2023-07-31T07:35:33;18.40;99.90
30572;DHT22;17348;50.948;10.696;2023-07-31T07:38:36;18.50;99.90
30572;DHT22;17348;50.948;10.696;2023-07-31T07:41:40;18.60;99.90
30572;DHT22;17348;50.948;10.696;2023-07-31T07:44:42;18.70;99.90
30572;DHT22;17348;50.948;10.696;2023-07-31T07:47:44;18.80;99.90
30572;DHT22;17348;50.948;10.696;2023-07-31T07:50:48;18.90;99.90
30572;DHT22;17348;50.948;10.696;2023-07-31T07:53:51;19.10;99.90
30572;DHT22;17348;50.948;10.696;2023-07-31T07:56:53;19.10;99.90
30572;DHT22;17348;50.948;10.696;2023-07-31T07:59:55;19.30;99.90
30572;DHT22;17348;50.948;10.696;2023-07-31T08:02:58;19.20;99.90
30572;DHT22;17348;50.948;10.696;2023-07-31T08:06:01;19.20;99.90
30572;DHT22;17348;50.948;10.696;2023-07-31T08:09:04;19.20;99.90
30572;DHT22;17348;50.948;10.696;2023-07-31T08:12:07;19.20;99.90
30572;DHT22;17348;50.948;10.696;2023-07-31T08:15:10;19.10;99.90
30572;DHT22;17348;50.948;10.696;2023-07-31T08:18:12;19.10;99.90
30572;DHT22;17348;50.948;10.696;2023-07-31T08:21:16;19.00;99.90
30572;DHT22;17348;50.948;10.696;2023-07-31T08:24:18;19.00;99.90
30572;DHT22;17348;50.948;10.696;2023-07-31T08:27:21;18.90;99.90
30572;DHT22;17348;50.948;10.696;2023-07-31T08:30:23;18.90;99.90
30572;DHT22;17348;50.948;10.696;2023-07-31T08:33:25;19.00;99.90
30572;DHT22;17348;50.948;10.696;2023-07-31T08:36:29;19.10;99.90
30572;DHT22;17348;50.948;10.696;2023-07-31T08:39:31;19.10;99.90
30572;DHT22;17348;50.948;10.696;2023-07-31T08:42:33;19.30;99.90
30572;DHT22;17348;50.948;10.696;2023-07-31T08:45:36;19.40;99.90
30572;DHT22;17348;50.948;10.696;2023-07-31T08:48:39;19.60;99.90
30572;DHT22;17348;50.948;10.696;2023-07-31T08:51:46;19.80;99.90
30572;DHT22;17348;50.948;10.696;2023-07-31T08:54:51;19.90;99.90
30572;DHT22;17348;50.948;10.696;2023-07-31T08:57:54;20.00;99.90
30572;DHT22;17348;50.948;10.696;2023-07-31T09:00:58;20.10;99.90
30572;DHT22;17348;50.948;10.696;2023-07-31T09:04:01;20.20;99.90
30572;DHT22;17348;50.948;10.696;2023-07-31T09:07:07;20.20;99.90
30572;DHT22;17348;50.948;10.696;2023-07-31T09:10:10;20.30;99.90
30572;DHT22;17348;50.948;10.696;2023-07-31T09:13:13;20.30;99.90
30572;DHT22;17348;50.948;10.696;2023-07-31T09:16:15;20.40;99.90
30572;DHT22;17348;50.948;10.696;2023-07-31T09:19:25;20.50;99.90
30572;DHT22;17348;50.948;10.696;2023-07-31T09:22:35;20.60;99.90
30572;DHT22;17348;50.948;10.696;2023-07-31T09:25:38;20.70;99.90
30572;DHT22;17348;50.948;10.696;2023-07-31T09:28:40;20.60;99.90
30572;DHT22;17348;50.948;10.696;2023-07-31T09:31:43;20.70;99.90
30572;DHT22;17348;50.948;10.696;2023-07-31T09:34:46;20.70;99.90
30572;DHT22;17348;50.948;10.696;2023-07-31T09:37:50;20.50;99.90
30572;DHT22;17348;50.948;10.696;2023-07-31T09:40:53;20.60;99.90
30572;DHT22;17348;50.948;10.696;2023-07-31T09:43:55;20.60;99.90
30572;DHT22;17348;50.948;10.696;2023-07-31T09:46:58;20.70;99.90
30572;DHT22;17348;50.948;10.696;2023-07-31T09:50:01;20.70;99.90
30572;DHT22;17348;50.948;10.696;2023-07-31T09:53:05;20.70;99.90
30572;DHT22;17348;50.948;10.696;2023-07-31T09:56:07;20.80;99.90
30572;DHT22;17348;50.948;10.696;2023-07-31T09:59:11;20.80;99.90
30572;DHT22;17348;50.948;10.696;2023-07-31T10:02:18;20.90;99.90
30572;DHT22;17348;50.948;10.696;2023-07-31T10:05:23;21.00;99.90
30572;DHT22;17348;50.948;10.696;2023-07-31T10:08:30;21.00;99.90
30572;DHT22;17348;50.948;10.696;2023-07-31T10:11:37;21.20;99.90
30572;DHT22;17348;50.948;10.696;2023-07-31T10:14:41;21.20;99.90
30572;DHT22;17348;50.948;10.696;2023-07-31T10:17:44;21.40;99.90
30572;DHT22;17348;50.948;10.696;2023-07-31T10:20:48;21.30;99.90
30572;DHT22;17348;50.948;10.696;2023-07-31T10:23:52;21.30;99.90
30572;DHT22;17348;50.948;10.696;2023-07-31T10:26:57;21.40;99.90
30572;DHT22;17348;50.948;10.696;2023-07-31T10:30:04;21.50;99.90
30572;DHT22;17348;50.948;10.696;2023-07-31T10:33:08;21.60;99.90
30572;DHT22;17348;50.948;10.696;2023-07-31T10:36:14;21.60;99.90
30572;DHT22;17348;50.948;10.696;2023-07-31T10:39:37;21.50;99.90
30572;DHT22;17348;50.948;10.696;2023-07-31T10:42:46;21.40;99.90
30572;DHT22;17348;50.948;10.696;2023-07-31T10:45:49;21.20;99.90
30572;DHT22;17348;50.948;10.696;2023-07-31T10:48:58;21.10;99.90
30572;DHT22;17348;50.948;10.696;2023-07-31T10:52:03;20.80;99.90
30572;DHT22;17348;50.948;10.696;2023-07-31T10:55:26;20.80;99.90
30572;DHT22;17348;50.948;10.696;2023-07-31T10:58:29;20.60;99.90
30572;DHT22;17348;50.948;10.696;2023-07-31T11:01:50;20.50;99.90
30572;DHT22;17348;50.948;10.696;2023-07-31T11:05:09;20.60;99.90
30572;DHT22;17348;50.948;10.696;2023-07-31T11:08:16;20.70;99.90
30572;DHT22;17348;50.948;10.696;2023-07-31T11:11:20;20.70;99.90
30572;DHT22;17348;50.948;10.696;2023-07-31T11:14:22;20.60;99.90
30572;DHT22;17348;50.948;10.696;2023-07-31T11:17:25;20.70;99.90
30572;DHT22;17348;50.948;10.696;2023-07-31T11:20:29;20.80;99.90
30572;DHT22;17348;50.948;10.696;2023-07-31T11:23:31;20.80;99.90
30572;DHT22;17348;50.948;10.696;2023-07-31T11:26:35;21.00;99.90
30572;DHT22;17348;50.948;10.696;2023-07-31T11:29:37;21.10;99.90
30572;DHT22;17348;50.948;10.696;2023-07-31T11:32:40;21.20;99.90
30572;DHT22;17348;50.948;10.696;2023-07-31T11:35:44;21.20;99.90
30572;DHT22;17348;50.948;10.696;2023-07-31T11:38:46;21.20;99.90
30572;DHT22;17348;50.948;10.696;2023-07-31T11:41:50;21.20;99.90
30572;DHT22;17348;50.948;10.696;2023-07-31T11:44:52;21.20;99.90
30572;DHT22;17348;50.948;10.696;2023-07-31T11:47:55;21.20;99.90
30572;DHT22;17348;50.948;10.696;2023-07-31T11:50:59;21.20;99.90
30572;DHT22;17348;50.948;10.696;2023-07-31T11:54:02;21.30;99.90
30572;DHT22;17348;50.948;10.696;2023-07-31T11:57:07;21.40;99.90
30572;DHT22;17348;50.948;10.696;2023-07-31T12:00:10;21.70;99.90
30572;DHT22;17348;50.948;10.696;2023-07-31T12:03:14;21.90;99.90
30572;DHT22;17348;50.948;10.696;2023-07-31T12:06:17;22.10;99.90
30572;DHT22;17348;50.948;10.696;2023-07-31T12:09:21;22.20;99.90
30572;DHT22;17348;50.948;10.696;2023-07-31T12:12:26;22.30;99.90
30572;DHT22;17348;50.948;10.696;2023-07-31T12:15:35;22.30;99.90
30572;DHT22;17348;50.948;10.696;2023-07-31T12:18:39;22.00;99.90
30572;DHT22;17348;50.948;10.696;2023-07-31T12:21:41;22.10;99.90
30572;DHT22;17348;50.948;10.696;2023-07-31T12:24:44;22.10;99.90
30572;DHT22;17348;50.948;10.696;2023-07-31T12:27:50;22.00;99.90
30572;DHT22;17348;50.948;10.696;2023-07-31T12:30:57;21.70;99.90
30572;DHT22;17348;50.948;10.696;2023-07-31T12:34:00;21.70;99.90
30572;DHT22;17348;50.948;10.696;2023-07-31T12:37:04;21.70;99.90
30572;DHT22;17348;50.948;10.696;2023-07-31T12:40:09;21.90;99.90
30572;DHT22;17348;50.948;10.696;2023-07-31T12:43:13;22.00;99.90
30572;DHT22;17348;50.948;10.696;2023-07-31T12:46:16;22.00;99.90
30572;DHT22;17348;50.948;10.696;2023-07-31T12:49:18;22.00;99.90
30572;DHT22;17348;50.948;10.696;2023-07-31T12:52:20;21.90;99.90
30572;DHT22;17348;50.948;10.696;2023-07-31T12:55:23;22.10;99.90
30572;DHT22;17348;50.948;10.696;2023-07-31T12:58:27;22.10;99.90
30572;DHT22;17348;50.948;10.696;2023-07-31T13:01:29;22.10;99.90
30572;DHT22;17348;50.948;10.696;2023-07-31T13:04:32;22.20;99.90
30572;DHT22;17348;50.948;10.696;2023-07-31T13:07:34;22.00;99.90
30572;DHT22;17348;50.948;10.696;2023-07-31T13:10:37;22.00;99.90
30572;DHT22;17348;50.948;10.696;2023-07-31T13:13:40;22.10;99.90
30572;DHT22;17348;50.948;10.696;2023-07-31T13:16:43;22.00;99.90
30572;DHT22;17348;50.948;10.696;2023-07-31T13:19:45;21.90;99.90
30572;DHT22;17348;50.948;10.696;2023-07-31T13:22:47;21.80;99.90
30572;DHT22;17348;50.948;10.696;2023-07-31T13:25:50;21.90;99.90
30572;DHT22;17348;50.948;10.696;2023-07-31T13:28:53;22.00;99.90
30572;DHT22;17348;50.948;10.696;2023-07-31T13:31:56;22.10;99.90
30572;DHT22;17348;50.948;10.696;2023-07-31T13:34:58;22.00;99.90
30572;DHT22;17348;50.948;10.696;2023-07-31T13:38:00;22.10;99.90
30572;DHT22;17348;50.948;10.696;2023-07-31T13:41:02;22.00;99.90
30572;DHT22;17348;50.948;10.696;2023-07-31T13:44:07;21.90;99.90
30572;DHT22;17348;50.948;10.696;2023-07-31T13:47:10;21.70;99.90
30572;DHT22;17348;50.948;10.696;2023-07-31T13:50:12;21.60;99.90
30572;DHT22;17348;50.948;10.696;2023-07-31T13:53:15;21.40;99.90
30572;DHT22;17348;50.948;10.696;2023-07-31T13:56:17;21.20;99.90
30572;DHT22;17348;50.948;10.696;2023-07-31T13:59:21;21.20;99.90
30572;DHT22;17348;50.948;10.696;2023-07-31T14:02:23;21.20;99.90
30572;DHT22;17348;50.948;10.696;2023-07-31T14:05:26;21.20;99.90
30572;DHT22;17348;50.948;10.696;2023-07-31T14:08:28;21.40;99.90
30572;DHT22;17348;50.948;10.696;2023-07-31T14:11:30;21.60;99.90
30572;DHT22;17348;50.948;10.696;2023-07-31T14:14:34;21.70;99.90
30572;DHT22;17348;50.948;10.696;2023-07-31T14:17:37;21.80;99.90
30572;DHT22;17348;50.948;10.696;2023-07-31T14:20:42;21.90;99.90
30572;DHT22;17348;50.948;10.696;2023-07-31T14:23:44;22.00;99.90
30572;DHT22;17348;50.948;10.696;2023-07-31T14:26:47;22.10;99.90
30572;DHT22;17348;50.948;10.696;2023-07-31T14:29:50;22.40;99.90
30572;DHT22;17348;50.948;10.696;2023-07-31T14:32:53;22.50;99.90
30572;DHT22;17348;50.948;10.696;2023-07-31T14:35:55;22.60;99.90
30572;DHT22;17348;50.948;10.696;2023-07-31T14:38:57;22.60;99.90
30572;DHT22;17348;50.948;10.696;2023-07-31T14:42:00;22.40;99.90
30572;DHT22;17348;50.948;10.696;2023-07-31T14:45:05;22.40;99.90
30572;DHT22;17348;50.948;10.696;2023-07-31T14:48:08;22.50;99.90
30572;DHT22;17348;50.948;10.696;2023-07-31T14:51:10;22.40;99.90
30572;DHT22;17348;50.948;10.696;2023-07-31T14:54:13;22.30;99.90
30572;DHT22;17348;50.948;10.696;2023-07-31T14:57:15;22.30;99.90
30572;DHT22;17348;50.948;10.696;2023-07-31T15:00:19;22.30;99.90
30572;DHT22;17348;50.948;10.696;2023-07-31T15:03:22;22.50;99.90
30572;DHT22;17348;50.948;10.696;2023-07-31T15:06:26;22.60;99.90
30572;DHT22;17348;50.948;10.696;2023-07-31T15:09:28;22.60;99.90
30572;DHT22;17348;50.948;10.696;2023-07-31T15:12:30;22.40;99.90
30572;DHT22;17348;50.948;10.696;2023-07-31T15:15:34;22.30;99.90
30572;DHT22;17348;50.948;10.696;2023-07-31T15:18:36;22.10;99.90
30572;DHT22;17348;50.948;10.696;2023-07-31T15:21:39;22.00;99.90
30572;DHT22;17348;50.948;10.696;2023-07-31T15:24:41;21.90;99.90
30572;DHT22;17348;50.948;10.696;2023-07-31T15:27:44;21.80;99.90
30572;DHT22;17348;50.948;10.696;2023-07-31T15:30:48;21.80;99.90
30572;DHT22;17348;50.948;10.696;2023-07-31T15:33:50;21.70;99.90
30572;DHT22;17348;50.948;10.696;2023-07-31T15:36:52;21.60;99.90
30572;DHT22;17348;50.948;10.696;2023-07-31T15:39:55;21.60;99.90
30572;DHT22;17348;50.948;10.696;2023-07-31T15:42:57;21.50;99.90
30572;DHT22;17348;50.948;10.696;2023-07-31T15:46:03;21.40;99.90
30572;DHT22;17348;50.948;10.696;2023-07-31T15:49:07;21.40;99.90
30572;DHT22;17348;50.948;10.696;2023-07-31T15:52:09;21.30;99.90
30572;DHT22;17348;50.948;10.696;2023-07-31T15:55:11;21.40;99.90
30572;DHT22;17348;50.948;10.696;2023-07-31T15:58:14;21.50;99.90
30572;DHT22;17348;50.948;10.696;2023-07-31T16:01:17;21.50;99.90
30572;DHT22;17348;50.948;10.696;2023-07-31T16:04:20;21.50;99.90
30572;DHT22;17348;50.948;10.696;2023-07-31T16:07:22;21.60;99.90
30572;DHT22;17348;50.948;10.696;2023-07-31T16:10:24;21.60;99.90
30572;DHT22;17348;50.948;10.696;2023-07-31T16:13:27;21.60;99.90
30572;DHT22;17348;50.948;10.696;2023-07-31T16:16:31;21.50;99.90
30572;DHT22;17348;50.948;10.696;2023-07-31T16:19:33;21.50;99.90
30572;DHT22;17348;50.948;10.696;2023-07-31T16:22:35;21.40;99.90
30572;DHT22;17348;50.948;10.696;2023-07-31T16:25:38;21.40;99.90
30572;DHT22;17348;50.948;10.696;2023-07-31T16:28:40;21.40;99.90
30572;DHT22;17348;50.948;10.696;2023-07-31T16:31:45;21.40;99.90
30572;DHT22;17348;50.948;10.696;2023-07-31T16:34:48;21.40;99.90
30572;DHT22;17348;50.948;10.696;2023-07-31T16:37:50;21.40;99.90
30572;DHT22;17348;50.948;10.696;2023-07-31T16:40:55;21.40;99.90
30572;DHT22;17348;50.948;10.696;2023-07-31T16:43:57;21.40;99.90
30572;DHT22;17348;50.948;10.696;2023-07-31T16:47:01;21.40;99.90
30572;DHT22;17348;50.948;10.696;2023-07-31T16:50:04;21.40;99.90
30572;DHT22;17348;50.948;10.696;2023-07-31T16:53:07;21.40;99.90
30572;DHT22;17348;50.948;10.696;2023-07-31T16:56:09;21.30;99.90
30572;DHT22;17348;50.948;10.696;2023-07-31T16:59:12;21.30;99.90
30572;DHT22;17348;50.948;10.696;2023-07-31T17:02:15;21.20;99.90
30572;DHT22;17348;50.948;10.696;2023-07-31T17:05:18;21.10;99.90
30572;DHT22;17348;50.948;10.696;2023-07-31T17:08:20;21.10;99.90
30572;DHT22;17348;50.948;10.696;2023-07-31T17:11:22;21.10;99.90
30572;DHT22;17348;50.948;10.696;2023-07-31T17:14:25;21.00;99.90
30572;DHT22;17348;50.948;10.696;2023-07-31T17:17:28;21.00;99.90
30572;DHT22;17348;50.948;10.696;2023-07-31T17:20:31;21.00;99.90
30572;DHT22;17348;50.948;10.696;2023-07-31T17:23:34;21.00;99.90
30572;DHT22;17348;50.948;10.696;2023-07-31T17:26:36;20.90;99.90
30572;DHT22;17348;50.948;10.696;2023-07-31T17:29:38;20.90;99.90
30572;DHT22;17348;50.948;10.696;2023-07-31T17:32:42;20.90;99.90
30572;DHT22;17348;50.948;10.696;2023-07-31T17:35:44;20.90;99.90
30572;DHT22;17348;50.948;10.696;2023-07-31T17:38:47;20.90;99.90
30572;DHT22;17348;50.948;10.696;2023-07-31T17:41:49;20.90;99.90
30572;DHT22;17348;50.948;10.696;2023-07-31T17:44:51;20.90;99.90
30572;DHT22;17348;50.948;10.696;2023-07-31T17:47:57;20.80;99.90
30572;DHT22;17348;50.948;10.696;2023-07-31T17:50:59;20.70;99.90
30572;DHT22;17348;50.948;10.696;2023-07-31T17:54:02;20.70;99.90
30572;DHT22;17348;50.948;10.696;2023-07-31T17:57:06;20.70;99.90
30572;DHT22;17348;50.948;10.696;2023-07-31T18:00:09;20.70;99.90
30572;DHT22;17348;50.948;10.696;2023-07-31T18:03:13;20.60;99.90
30572;DHT22;17348;50.948;10.696;2023-07-31T18:06:15;20.60;99.90
30572;DHT22;17348;50.948;10.696;2023-07-31T18:09:18;20.60;99.90
30572;DHT22;17348;50.948;10.696;2023-07-31T18:12:20;20.50;99.90
30572;DHT22;17348;50.948;10.696;2023-07-31T18:15:22;20.50;99.90
30572;DHT22;17348;50.948;10.696;2023-07-31T18:18:26;20.50;99.90
30572;DHT22;17348;50.948;10.696;2023-07-31T18:21:28;20.50;99.90
30572;DHT22;17348;50.948;10.696;2023-07-31T18:24:33;20.50;99.90
30572;DHT22;17348;50.948;10.696;2023-07-31T18:27:35;20.50;99.90
30572;DHT22;17348;50.948;10.696;2023-07-31T18:30:37;20.40;99.90
30572;DHT22;17348;50.948;10.696;2023-07-31T18:33:41;20.40;99.90
30572;DHT22;17348;50.948;10.696;2023-07-31T18:36:44;20.40;99.90
30572;DHT22;17348;50.948;10.696;2023-07-31T18:39:47;20.40;99.90
30572;DHT22;17348;50.948;10.696;2023-07-31T18:42:49;20.40;99.90
30572;DHT22;17348;50.948;10.696;2023-07-31T18:45:52;20.30;99.90
30572;DHT22;17348;50.948;10.696;2023-07-31T18:48:55;20.30;99.90
30572;DHT22;17348;50.948;10.696;2023-07-31T18:51:58;20.30;99.90
30572;DHT22;17348;50.948;10.696;2023-07-31T18:55:00;20.20;99.90
30572;DHT22;17348;50.948;10.696;2023-07-31T18:58:05;20.10;99.90
30572;DHT22;17348;50.948;10.696;2023-07-31T19:01:08;20.10;99.90